createdAt,value
2023-02-23T00:01:26.104Z,98925.83
2023-02-23T00:06:29.773Z,98923.82
2023-02-23T00:11:33.624Z,98919.98
2023-02-23T00:16:35.367Z,98915.55
2023-02-23T00:21:37.202Z,98916.20
2023-02-23T00:26:39.970Z,98914.80
2023-02-23T00:31:44.346Z,98915.40
2023-02-23T00:36:49.448Z,98912.02
2023-02-23T00:41:52.583Z,98909.20
2023-02-23T00:46:54.623Z,98912.77
2023-02-23T00:51:56.799Z,98911.59
2023-02-23T00:56:58.538Z,98916.11
2023-02-23T01:02:00.201Z,98915.04
2023-02-23T01:07:06.434Z,98910.33
2023-02-23T01:12:08.162Z,98908.89
2023-02-23T01:17:10.385Z,98910.52
2023-02-23T01:22:12.091Z,98914.63
2023-02-23T01:27:15.442Z,98907.43
2023-02-23T01:32:17.211Z,98902.45
2023-02-23T01:37:19.070Z,98895.60
2023-02-23T01:42:22.824Z,98870.98
2023-02-23T01:47:26.764Z,98886.52
2023-02-23T01:52:28.518Z,98876.38
2023-02-23T01:57:30.391Z,98871.26
2023-02-23T02:02:33.953Z,98864.80
2023-02-23T02:07:36.883Z,98863.63
2023-02-23T02:12:40.042Z,98869.27
2023-02-23T02:18:03.599Z,98866.61
2023-02-23T02:23:37.733Z,98859.36
2023-02-23T02:29:01.121Z,98852.35
2023-02-23T02:34:32.636Z,98847.83
2023-02-23T02:40:16.440Z,98852.04
2023-02-23T02:45:37.417Z,98855.02
2023-02-23T02:50:46.579Z,98854.56
2023-02-23T02:55:50.374Z,98849.80
2023-02-23T03:01:12.190Z,98853.02
2023-02-23T03:06:33.588Z,98848.17
2023-02-23T03:12:10.800Z,98849.36
2023-02-23T03:18:02.104Z,98846.64
2023-02-23T03:23:55.344Z,98846.86
2023-02-23T03:29:49.384Z,98845.77
2023-02-23T03:35:25.691Z,98846.89
2023-02-23T03:40:56.160Z,98847.11
2023-02-23T03:46:20.325Z,98844.14
2023-02-23T03:51:44.771Z,98839.57
2023-02-23T03:57:09.747Z,98849.88
2023-02-23T04:02:33.802Z,98846.92
2023-02-23T04:07:59.018Z,98846.61
2023-02-23T04:13:16.337Z,98840.42
2023-02-23T04:18:24.414Z,98834.73
2023-02-23T04:23:27.342Z,98836.94
2023-02-23T04:28:29.291Z,98835.17
2023-02-23T04:33:31.123Z,98834.02
2023-02-23T04:38:32.807Z,98831.52
2023-02-23T04:43:34.515Z,98835.02
2023-02-23T04:48:36.176Z,98829.67
2023-02-23T04:53:38.509Z,98827.10
2023-02-23T04:58:40.201Z,98831.48
2023-02-23T05:03:41.840Z,98829.46
2023-02-23T05:08:44.240Z,98829.76
2023-02-23T05:13:45.948Z,98828.77
2023-02-23T05:18:47.682Z,98827.99
2023-02-23T05:23:49.716Z,98827.73
2023-02-23T05:28:51.499Z,98827.83
2023-02-23T05:33:53.209Z,98829.58
2023-02-23T05:38:55.171Z,98831.85
2023-02-23T05:43:56.888Z,98828.33
2023-02-23T05:49:00.997Z,98833.79
2023-02-23T05:54:02.762Z,98831.46
2023-02-23T05:59:04.904Z,98835.80
2023-02-23T06:04:06.768Z,98835.33
2023-02-23T06:09:08.506Z,98836.93
2023-02-23T06:14:10.163Z,98840.48
2023-02-23T06:19:11.905Z,98846.08
2023-02-23T06:24:13.647Z,98851.53
2023-02-23T06:29:15.642Z,98853.02
2023-02-23T06:34:17.465Z,98860.98
2023-02-23T06:39:19.143Z,98855.02
2023-02-23T06:44:21.158Z,98855.94
2023-02-23T06:49:22.999Z,98854.80
2023-02-23T06:54:26.391Z,98853.89
2023-02-23T06:59:28.145Z,98855.22
2023-02-23T07:04:29.955Z,98854.58
2023-02-23T07:09:31.854Z,98828.77
2023-02-23T07:14:33.678Z,98849.66
2023-02-23T07:19:35.491Z,98852.23
2023-02-23T07:24:38.504Z,98844.64
2023-02-23T07:29:40.245Z,98844.29
2023-02-23T07:34:41.925Z,98848.70
2023-02-23T07:39:44.115Z,98846.84
2023-02-23T07:44:45.900Z,98840.66
2023-02-23T07:49:47.584Z,98836.54
2023-02-23T07:54:49.287Z,98829.77
2023-02-23T07:59:58.704Z,98829.10
2023-02-23T08:05:00.390Z,98829.50
2023-02-23T08:10:02.179Z,98827.98
2023-02-23T08:15:08.192Z,98831.73
2023-02-23T08:20:10.679Z,98786.10
2023-02-23T08:25:12.365Z,98820.56
2023-02-23T08:30:15.543Z,98821.45
2023-02-23T08:35:20.076Z,98822.84
2023-02-23T08:40:21.796Z,98823.05
2023-02-23T08:45:23.458Z,98819.16
2023-02-23T08:50:27.332Z,98831.89
2023-02-23T08:55:29.180Z,98828.83
2023-02-23T09:00:31.370Z,98835.64
2023-02-23T09:05:36.716Z,98832.13
2023-02-23T09:10:38.637Z,98827.14
2023-02-23T09:15:40.996Z,98822.53
2023-02-23T09:20:44.165Z,98815.09
2023-02-23T09:25:46.470Z,98819.84
2023-02-23T09:30:48.592Z,98817.52
2023-02-23T09:35:50.267Z,98815.23
2023-02-23T09:40:55.392Z,98814.90
2023-02-23T09:46:31.355Z,98812.83
2023-02-23T09:51:40.753Z,98816.86
2023-02-23T09:56:46.971Z,98816.09
2023-02-23T10:01:48.752Z,98813.09
2023-02-23T10:07:25.076Z,98809.60
2023-02-23T10:12:42.284Z,98809.20
2023-02-23T10:18:45.672Z,98815.61
2023-02-23T10:23:59.447Z,98802.60
2023-02-23T10:29:01.108Z,98798.58
2023-02-23T10:34:09.958Z,98798.35
2023-02-23T10:39:13.542Z,98799.31
2023-02-23T10:44:21.493Z,98791.48
2023-02-23T10:49:30.329Z,98785.08
2023-02-23T10:54:48.417Z,98774.64
2023-02-23T11:00:07.093Z,98767.02
2023-02-23T11:05:29.256Z,98757.73
2023-02-23T11:10:32.185Z,98752.53
2023-02-23T11:15:49.807Z,98743.79
2023-02-23T11:20:52.627Z,98739.65
2023-02-23T11:26:00.264Z,98735.64
2023-02-23T11:31:15.854Z,98731.61
2023-02-23T11:36:37.220Z,98728.20
2023-02-23T11:41:38.892Z,98721.52
2023-02-23T11:46:45.705Z,98717.55
2023-02-23T11:51:49.876Z,98709.98
2023-02-23T11:56:54.065Z,98707.92
2023-02-23T12:02:05.186Z,98708.19
2023-02-23T12:07:38.731Z,98706.79
2023-02-23T12:13:22.995Z,98703.30
2023-02-23T12:18:27.618Z,98692.40
2023-02-23T12:23:34.969Z,98690.86
2023-02-23T12:28:47.986Z,98681.54
2023-02-23T12:34:01.261Z,98675.34
2023-02-23T12:39:11.878Z,98662.98
2023-02-23T12:44:29.770Z,98654.04
2023-02-23T12:49:46.058Z,98653.08
2023-02-23T12:54:48.103Z,98646.74
2023-02-23T13:00:24.003Z,98636.56
2023-02-23T13:05:32.238Z,98628.86
2023-02-23T13:10:59.626Z,98626.54
2023-02-23T13:16:05.657Z,98618.95
2023-02-23T13:21:16.467Z,98620.73
2023-02-23T13:26:27.017Z,98598.64
2023-02-23T13:31:35.402Z,98612.38
2023-02-23T13:36:40.726Z,98607.23
2023-02-23T13:42:20.294Z,98601.44
2023-02-23T13:47:21.934Z,98591.28
2023-02-23T13:52:40.877Z,98585.80
2023-02-23T13:57:43.833Z,98586.17
2023-02-23T14:02:46.446Z,98578.39
2023-02-23T14:08:02.945Z,98573.63
2023-02-23T14:13:06.957Z,98569.65
2023-02-23T14:18:20.971Z,98567.63
2023-02-23T14:23:22.763Z,98567.53
2023-02-23T14:28:34.414Z,98562.05
2023-02-23T14:33:50.031Z,98567.35
2023-02-23T14:38:54.462Z,98563.90
2023-02-23T14:44:03.284Z,98558.17
2023-02-23T14:49:11.783Z,98562.89
2023-02-23T14:54:42.770Z,98558.35
2023-02-23T14:59:46.165Z,98555.66
2023-02-23T15:04:47.899Z,98553.80
2023-02-23T15:09:52.325Z,98550.22
2023-02-23T15:15:00.932Z,98535.85
2023-02-23T15:20:16.213Z,98538.59
2023-02-23T15:25:23.961Z,98530.39
2023-02-23T15:30:32.663Z,98531.77
2023-02-23T15:35:52.654Z,98528.31
2023-02-23T15:40:58.144Z,98526.61
2023-02-23T15:46:06.195Z,98520.61
2023-02-23T15:51:17.528Z,98521.11
2023-02-23T15:56:28.413Z,98518.35
2023-02-23T16:01:31.890Z,98518.31
2023-02-23T16:06:50.923Z,98510.55
2023-02-23T16:12:00.307Z,98512.73
2023-02-23T16:17:10.979Z,98515.38
2023-02-23T16:22:24.798Z,98511.20
2023-02-23T16:27:28.268Z,98508.18
2023-02-23T16:32:36.687Z,98510.30
2023-02-23T16:38:00.848Z,98508.15
2023-02-23T16:43:02.729Z,98503.25
2023-02-23T16:48:04.700Z,98502.02
2023-02-23T16:53:10.047Z,98507.13
2023-02-23T16:58:19.163Z,98504.98
2023-02-23T17:03:26.702Z,98506.55
2023-02-23T17:08:28.585Z,98505.39
2023-02-23T17:13:33.254Z,98506.60
2023-02-23T17:18:37.175Z,98508.13
2023-02-23T17:23:48.199Z,98508.81
2023-02-23T17:28:50.771Z,98505.91
2023-02-23T17:33:53.671Z,98506.58
2023-02-23T17:38:58.712Z,98505.73
2023-02-23T17:44:02.628Z,98476.16
2023-02-23T17:49:04.983Z,98499.64
2023-02-23T17:54:07.186Z,98499.73
2023-02-23T17:59:09.083Z,98494.30
2023-02-23T18:04:11.211Z,98491.09
2023-02-23T18:09:14.454Z,98489.23
2023-02-23T18:14:17.363Z,98486.48
2023-02-23T18:19:19.926Z,98482.05
2023-02-23T18:24:26.314Z,98476.58
2023-02-23T18:29:29.915Z,98476.73
2023-02-23T18:34:31.807Z,98472.46
2023-02-23T18:39:34.697Z,98465.67
2023-02-23T18:44:36.347Z,98462.50
2023-02-23T18:49:39.529Z,98458.30
2023-02-23T18:54:41.619Z,98452.39
2023-02-23T18:59:43.960Z,98449.15
2023-02-23T19:05:02.738Z,98446.08
2023-02-23T19:10:07.109Z,98443.35
2023-02-23T19:15:09.777Z,98440.59
2023-02-23T19:20:13.361Z,98435.45
2023-02-23T19:25:15.481Z,98435.63
2023-02-23T19:30:17.509Z,98433.46
2023-02-23T19:35:19.402Z,98431.47
2023-02-23T19:40:24.002Z,98431.64
2023-02-23T19:45:25.945Z,98429.74
2023-02-23T19:50:28.436Z,98426.80
2023-02-23T19:55:30.344Z,98420.83
2023-02-23T20:00:37.285Z,98413.03
2023-02-23T20:05:42.882Z,98415.45
2023-02-23T20:10:45.332Z,98413.78
2023-02-23T20:15:47.116Z,98407.14
2023-02-23T20:20:48.972Z,98410.77
2023-02-23T20:25:50.648Z,98408.52
2023-02-23T20:30:52.409Z,98404.98
2023-02-23T20:35:56.109Z,98400.05
2023-02-23T20:40:58.808Z,98387.42
2023-02-23T20:46:01.170Z,98382.32
2023-02-23T20:51:03.698Z,98379.08
2023-02-23T20:56:06.513Z,98373.44
2023-02-23T21:01:22.305Z,98372.58
2023-02-23T21:06:26.100Z,98373.27
2023-02-23T21:11:28.320Z,98369.85
2023-02-23T21:16:32.295Z,98365.41
2023-02-23T21:21:42.743Z,98359.96
2023-02-23T21:26:45.157Z,98357.21
2023-02-23T21:31:47.091Z,98354.98
2023-02-23T21:36:49.886Z,98350.70
2023-02-23T21:41:51.721Z,98350.01
2023-02-23T21:46:53.503Z,98342.84
2023-02-23T21:51:55.217Z,98335.00
2023-02-23T21:56:56.938Z,98337.89
2023-02-23T22:01:58.709Z,98335.27
2023-02-23T22:07:00.446Z,98331.00
2023-02-23T22:12:02.438Z,98327.08
2023-02-23T22:17:06.361Z,98323.33
2023-02-23T22:22:08.360Z,98319.74
2023-02-23T22:27:10.446Z,98315.11
2023-02-23T22:32:13.774Z,98310.48
2023-02-23T22:37:15.530Z,98310.98
2023-02-23T22:42:17.361Z,98302.80
2023-02-23T22:47:19.056Z,98301.09
2023-02-23T22:52:20.796Z,98301.92
2023-02-23T22:57:22.512Z,98300.89
2023-02-23T23:02:24.232Z,98296.27
2023-02-23T23:07:26.122Z,98286.39
2023-02-23T23:12:28.714Z,98285.38
2023-02-23T23:17:31.778Z,98265.06
2023-02-23T23:22:35.418Z,98278.86
2023-02-23T23:27:41.302Z,98269.48
2023-02-23T23:32:43.273Z,98266.90
2023-02-23T23:37:45.321Z,98221.84
2023-02-23T23:42:48.111Z,98260.76
2023-02-23T23:47:50.019Z,98256.66
2023-02-23T23:52:51.882Z,98253.91
2023-02-23T23:57:53.554Z,98250.64
